sensor_id;sensor_type;location;lat;lon;timestamp;pressure;altitude;pressure_sealevel;temperature;humidity
5284;BME280;15377;48.540;9.268;2023-04-03T00:00:45;98136.66;;;3.96;100.00
5284;BME280;15377;48.540;9.268;2023-04-03T00:03:10;98136.81;;;3.85;100.00
5284;BME280;15377;48.540;9.268;2023-04-03T00:05:35;98137.78;;;3.98;100.00
5284;BME280;15377;48.540;9.268;2023-04-03T00:08:01;98134.19;;;4.05;100.00
5284;BME280;15377;48.540;9.268;2023-04-03T00:10:27;98133.13;;;3.99;100.00
5284;BME280;15377;48.540;9.268;2023-04-03T00:12:53;98130.16;;;3.90;100.00
5284;BME280;15377;48.540;9.268;2023-04-03T00:15:18;98131.94;;;4.00;100.00
5284;BME280;15377;48.540;9.268;2023-04-03T00:17:43;98125.41;;;3.94;100.00
5284;BME280;15377;48.540;9.268;2023-04-03T00:20:09;98131.31;;;3.89;100.00
5284;BME280;15377;48.540;9.268;2023-04-03T00:22:34;98132.00;;;3.96;100.00
5284;BME280;15377;48.540;9.268;2023-04-03T00:25:00;98120.81;;;3.91;100.00
5284;BME280;15377;48.540;9.268;2023-04-03T00:27:25;98120.50;;;3.85;100.00
5284;BME280;15377;48.540;9.268;2023-04-03T00:29:51;98127.72;;;3.95;100.00
5284;BME280;15377;48.540;9.268;2023-04-03T00:32:16;98127.78;;;3.92;100.00
5284;BME280;15377;48.540;9.268;2023-04-03T00:34:41;98133.22;;;3.92;100.00
5284;BME280;15377;48.540;9.268;2023-04-03T00:37:07;98128.59;;;3.89;100.00
5284;BME280;15377;48.540;9.268;2023-04-03T00:39:32;98131.63;;;3.94;100.00
5284;BME280;15377;48.540;9.268;2023-04-03T00:41:57;98126.34;;;3.84;100.00
5284;BME280;15377;48.540;9.268;2023-04-03T00:47:02;98124.81;;;3.83;100.00
5284;BME280;15377;48.540;9.268;2023-04-03T00:49:29;98137.59;;;3.86;100.00
5284;BME280;15377;48.540;9.268;2023-04-03T00:51:55;98134.91;;;3.82;100.00
5284;BME280;15377;48.540;9.268;2023-04-03T00:54:21;98131.78;;;3.84;100.00
5284;BME280;15377;48.540;9.268;2023-04-03T00:56:48;98110.09;;;3.77;100.00
5284;BME280;15377;48.540;9.268;2023-04-03T00:59:16;98117.91;;;3.75;100.00
5284;BME280;15377;48.540;9.268;2023-04-03T01:01:47;98134.94;;;3.79;100.00
5284;BME280;15377;48.540;9.268;2023-04-03T01:04:36;98142.66;;;3.84;100.00
5284;BME280;15377;48.540;9.268;2023-04-03T01:07:05;98122.16;;;3.76;100.00
5284;BME280;15377;48.540;9.268;2023-04-03T01:09:32;98131.13;;;3.73;100.00
5284;BME280;15377;48.540;9.268;2023-04-03T01:14:43;98134.25;;;3.75;100.00
5284;BME280;15377;48.540;9.268;2023-04-03T01:25:18;98133.28;;;3.58;100.00
5284;BME280;15377;48.540;9.268;2023-04-03T01:27:43;98134.06;;;3.59;100.00
5284;BME280;15377;48.540;9.268;2023-04-03T01:30:10;98132.97;;;3.53;100.00
5284;BME280;15377;48.540;9.268;2023-04-03T01:32:35;98136.88;;;3.52;100.00
5284;BME280;15377;48.540;9.268;2023-04-03T01:35:01;98139.59;;;3.52;100.00
5284;BME280;15377;48.540;9.268;2023-04-03T01:37:26;98132.59;;;3.51;100.00
5284;BME280;15377;48.540;9.268;2023-04-03T01:39:51;98119.88;;;3.41;100.00
5284;BME280;15377;48.540;9.268;2023-04-03T01:42:17;98128.44;;;3.43;100.00
5284;BME280;15377;48.540;9.268;2023-04-03T01:44:42;98143.50;;;3.51;100.00
5284;BME280;15377;48.540;9.268;2023-04-03T01:47:07;98133.44;;;3.44;100.00
5284;BME280;15377;48.540;9.268;2023-04-03T01:49:33;98097.16;;;3.25;100.00
5284;BME280;15377;48.540;9.268;2023-04-03T01:51:58;98131.50;;;3.45;100.00
5284;BME280;15377;48.540;9.268;2023-04-03T01:54:24;98143.09;;;3.49;100.00
5284;BME280;15377;48.540;9.268;2023-04-03T01:56:49;98138.44;;;3.49;100.00
5284;BME280;15377;48.540;9.268;2023-04-03T01:59:14;98138.50;;;3.46;100.00
5284;BME280;15377;48.540;9.268;2023-04-03T02:01:42;98128.50;;;3.36;100.00
5284;BME280;15377;48.540;9.268;2023-04-03T02:04:08;98135.41;;;3.44;100.00
5284;BME280;15377;48.540;9.268;2023-04-03T02:06:34;98141.22;;;3.46;100.00
5284;BME280;15377;48.540;9.268;2023-04-03T02:09:00;98138.56;;;3.39;100.00
5284;BME280;15377;48.540;9.268;2023-04-03T02:11:25;98132.84;;;3.30;100.00
5284;BME280;15377;48.540;9.268;2023-04-03T02:13:51;98137.44;;;3.37;100.00
5284;BME280;15377;48.540;9.268;2023-04-03T02:16:16;98133.94;;;3.36;100.00
5284;BME280;15377;48.540;9.268;2023-04-03T02:18:41;98142.91;;;3.33;100.00
5284;BME280;15377;48.540;9.268;2023-04-03T02:21:07;98147.22;;;3.31;100.00
5284;BME280;15377;48.540;9.268;2023-04-03T02:23:32;98150.31;;;3.33;100.00
5284;BME280;15377;48.540;9.268;2023-04-03T02:26:11;98143.69;;;3.34;100.00
5284;BME280;15377;48.540;9.268;2023-04-03T02:28:36;98144.44;;;3.34;100.00
5284;BME280;15377;48.540;9.268;2023-04-03T02:31:03;98141.78;;;3.31;100.00
5284;BME280;15377;48.540;9.268;2023-04-03T02:33:29;98147.16;;;3.34;100.00
5284;BME280;15377;48.540;9.268;2023-04-03T02:35:55;98145.63;;;3.33;100.00
5284;BME280;15377;48.540;9.268;2023-04-03T02:38:21;98137.09;;;3.31;100.00
5284;BME280;15377;48.540;9.268;2023-04-03T02:40:47;98147.16;;;3.34;100.00
5284;BME280;15377;48.540;9.268;2023-04-03T02:43:12;98144.50;;;3.31;100.00
5284;BME280;15377;48.540;9.268;2023-04-03T02:45:37;98146.47;;;3.27;100.00
5284;BME280;15377;48.540;9.268;2023-04-03T02:48:03;98142.63;;;3.24;100.00
5284;BME280;15377;48.540;9.268;2023-04-03T02:50:29;98149.56;;;3.29;100.00
5284;BME280;15377;48.540;9.268;2023-04-03T02:52:54;98144.16;;;3.25;100.00
5284;BME280;15377;48.540;9.268;2023-04-03T02:55:20;98150.28;;;3.36;100.00
5284;BME280;15377;48.540;9.268;2023-04-03T02:57:45;98144.44;;;3.34;100.00
5284;BME280;15377;48.540;9.268;2023-04-03T03:00:11;98153.34;;;3.38;100.00
5284;BME280;15377;48.540;9.268;2023-04-03T03:02:36;98157.16;;;3.44;100.00
5284;BME280;15377;48.540;9.268;2023-04-03T03:05:02;98143.25;;;3.39;100.00
5284;BME280;15377;48.540;9.268;2023-04-03T03:07:27;98151.41;;;3.39;100.00
5284;BME280;15377;48.540;9.268;2023-04-03T03:09:53;98153.44;;;3.31;100.00
5284;BME280;15377;48.540;9.268;2023-04-03T03:12:18;98158.44;;;3.36;100.00
5284;BME280;15377;48.540;9.268;2023-04-03T03:14:50;98143.34;;;3.32;100.00
5284;BME280;15377;48.540;9.268;2023-04-03T03:17:15;98137.88;;;3.32;100.00
5284;BME280;15377;48.540;9.268;2023-04-03T03:19:41;98142.53;;;3.31;100.00
5284;BME280;15377;48.540;9.268;2023-04-03T03:22:06;98146.44;;;3.30;100.00
5284;BME280;15377;48.540;9.268;2023-04-03T03:24:32;98144.09;;;3.32;100.00
5284;BME280;15377;48.540;9.268;2023-04-03T03:26:57;98148.41;;;3.26;100.00
5284;BME280;15377;48.540;9.268;2023-04-03T03:29:22;98148.50;;;3.23;100.00
5284;BME280;15377;48.540;9.268;2023-04-03T03:31:48;98147.34;;;3.20;100.00
5284;BME280;15377;48.540;9.268;2023-04-03T03:34:13;98145.78;;;3.23;100.00
5284;BME280;15377;48.540;9.268;2023-04-03T03:36:38;98148.41;;;3.26;100.00
5284;BME280;15377;48.540;9.268;2023-04-03T03:39:04;98134.09;;;3.22;100.00
5284;BME280;15377;48.540;9.268;2023-04-03T03:41:30;98135.28;;;3.21;100.00
5284;BME280;15377;48.540;9.268;2023-04-03T03:43:56;98131.41;;;3.19;100.00
5284;BME280;15377;48.540;9.268;2023-04-03T03:46:21;98147.31;;;3.24;100.00
5284;BME280;15377;48.540;9.268;2023-04-03T03:48:46;98139.97;;;3.17;100.00
5284;BME280;15377;48.540;9.268;2023-04-03T03:51:12;98134.25;;;3.08;100.00
5284;BME280;15377;48.540;9.268;2023-04-03T03:53:37;98147.09;;;3.08;100.00
5284;BME280;15377;48.540;9.268;2023-04-03T03:56:03;98138.97;;;3.04;100.00
5284;BME280;15377;48.540;9.268;2023-04-03T03:58:28;98138.16;;;3.07;100.00
5284;BME280;15377;48.540;9.268;2023-04-03T04:00:54;98144.34;;;3.11;100.00
5284;BME280;15377;48.540;9.268;2023-04-03T04:03:19;98135.44;;;3.07;100.00
5284;BME280;15377;48.540;9.268;2023-04-03T04:05:45;98149.03;;;3.07;100.00
5284;BME280;15377;48.540;9.268;2023-04-03T04:08:11;98152.06;;;3.13;100.00
5284;BME280;15377;48.540;9.268;2023-04-03T04:10:37;98144.22;;;3.18;100.00
5284;BME280;15377;48.540;9.268;2023-04-03T04:13:03;98149.38;;;3.09;100.00
5284;BME280;15377;48.540;9.268;2023-04-03T04:15:28;98139.69;;;3.08;100.00
5284;BME280;15377;48.540;9.268;2023-04-03T04:17:54;98152.03;;;3.16;100.00
5284;BME280;15377;48.540;9.268;2023-04-03T04:20:19;98154.03;;;3.12;100.00
5284;BME280;15377;48.540;9.268;2023-04-03T04:22:45;98154.38;;;3.14;100.00
5284;BME280;15377;48.540;9.268;2023-04-03T04:25:10;98152.81;;;3.17;100.00
5284;BME280;15377;48.540;9.268;2023-04-03T04:27:36;98161.31;;;3.22;100.00
5284;BME280;15377;48.540;9.268;2023-04-03T04:30:02;98155.50;;;3.20;100.00
5284;BME280;15377;48.540;9.268;2023-04-03T04:32:28;98145.81;;;3.19;100.00
5284;BME280;15377;48.540;9.268;2023-04-03T04:34:54;98151.25;;;3.19;100.00
5284;BME280;15377;48.540;9.268;2023-04-03T04:37:19;98143.56;;;3.11;100.00
5284;BME280;15377;48.540;9.268;2023-04-03T04:39:44;98156.75;;;3.12;100.00
5284;BME280;15377;48.540;9.268;2023-04-03T04:42:10;98154.03;;;3.12;100.00
5284;BME280;15377;48.540;9.268;2023-04-03T04:44:38;98157.47;;;3.16;100.00
5284;BME280;15377;48.540;9.268;2023-04-03T04:47:04;98162.91;;;3.16;100.00
5284;BME280;15377;48.540;9.268;2023-04-03T04:49:29;98157.47;;;3.16;100.00
5284;BME280;15377;48.540;9.268;2023-04-03T04:51:54;98153.56;;;3.17;100.00
5284;BME280;15377;48.540;9.268;2023-04-03T04:54:20;98164.41;;;3.21;100.00
5284;BME280;15377;48.540;9.268;2023-04-03T04:56:45;98161.38;;;3.15;100.00
5284;BME280;15377;48.540;9.268;2023-04-03T04:59:10;98159.03;;;3.14;100.00
5284;BME280;15377;48.540;9.268;2023-04-03T05:01:36;98142.03;;;3.06;100.00
5284;BME280;15377;48.540;9.268;2023-04-03T05:04:01;98164.75;;;3.26;100.00
5284;BME280;15377;48.540;9.268;2023-04-03T05:06:27;98166.63;;;3.33;100.00
5284;BME280;15377;48.540;9.268;2023-04-03T05:08:52;98163.66;;;3.20;100.00
5284;BME280;15377;48.540;9.268;2023-04-03T05:11:17;98172.13;;;3.26;100.00
5284;BME280;15377;48.540;9.268;2023-04-03T05:13:43;98162.88;;;3.20;100.00
5284;BME280;15377;48.540;9.268;2023-04-03T05:16:08;98161.31;;;3.22;100.00
5284;BME280;15377;48.540;9.268;2023-04-03T05:18:33;98176.72;;;3.32;100.00
5284;BME280;15377;48.540;9.268;2023-04-03T05:20:59;98172.91;;;3.26;100.00
5284;BME280;15377;48.540;9.268;2023-04-03T05:23:24;98186.88;;;3.28;100.00
5284;BME280;15377;48.540;9.268;2023-04-03T05:25:50;98180.63;;;3.31;100.00
5284;BME280;15377;48.540;9.268;2023-04-03T05:28:15;98186.06;;;3.31;100.00
5284;BME280;15377;48.540;9.268;2023-04-03T05:30:40;98184.88;;;3.32;100.00
5284;BME280;15377;48.540;9.268;2023-04-03T05:33:06;98193.00;;;3.36;100.00
5284;BME280;15377;48.540;9.268;2023-04-03T05:35:32;98171.28;;;3.32;100.00
5284;BME280;15377;48.540;9.268;2023-04-03T05:37:57;98183.56;;;3.47;100.00
5284;BME280;15377;48.540;9.268;2023-04-03T05:40:22;98185.84;;;3.52;100.00
5284;BME280;15377;48.540;9.268;2023-04-03T05:42:48;98181.19;;;3.49;100.00
5284;BME280;15377;48.540;9.268;2023-04-03T05:45:13;98189.75;;;3.51;100.00
5284;BME280;15377;48.540;9.268;2023-04-03T05:47:39;98178.47;;;3.49;100.00
5284;BME280;15377;48.540;9.268;2023-04-03T05:50:04;98186.53;;;3.59;100.00
5284;BME280;15377;48.540;9.268;2023-04-03T05:52:33;98185.81;;;3.55;100.00
5284;BME280;15377;48.540;9.268;2023-04-03T05:55:00;98175.28;;;3.57;100.00
5284;BME280;15377;48.540;9.268;2023-04-03T05:57:25;98196.09;;;3.71;100.00
5284;BME280;15377;48.540;9.268;2023-04-03T05:59:51;98199.28;;;3.66;100.00
5284;BME280;15377;48.540;9.268;2023-04-03T06:02:18;98195.00;;;3.65;100.00
5284;BME280;15377;48.540;9.268;2023-04-03T06:04:44;98194.97;;;3.68;100.00
5284;BME280;15377;48.540;9.268;2023-04-03T06:07:15;98208.84;;;3.77;100.00
5284;BME280;15377;48.540;9.268;2023-04-03T06:09:42;98201.91;;;3.73;100.00
5284;BME280;15377;48.540;9.268;2023-04-03T06:12:08;98193.44;;;3.67;100.00
5284;BME280;15377;48.540;9.268;2023-04-03T06:14:34;98199.69;;;3.64;100.00
5284;BME280;15377;48.540;9.268;2023-04-03T06:17:00;98210.00;;;3.80;100.00
5284;BME280;15377;48.540;9.268;2023-04-03T06:19:26;98209.47;;;3.92;100.00
5284;BME280;15377;48.540;9.268;2023-04-03T06:21:52;98205.19;;;3.91;100.00
5284;BME280;15377;48.540;9.268;2023-04-03T06:24:18;98206.81;;;3.85;100.00
5284;BME280;15377;48.540;9.268;2023-04-03T06:26:45;98193.75;;;3.73;100.00
5284;BME280;15377;48.540;9.268;2023-04-03T06:29:10;98211.16;;;3.79;100.00
5284;BME280;15377;48.540;9.268;2023-04-03T06:31:36;98222.69;;;3.93;100.00
5284;BME280;15377;48.540;9.268;2023-04-03T06:34:02;98210.56;;;3.98;100.00
5284;BME280;15377;48.540;9.268;2023-04-03T06:36:28;98214.44;;;3.97;100.00
5284;BME280;15377;48.540;9.268;2023-04-03T06:38:54;98225.75;;;3.95;100.00
5284;BME280;15377;48.540;9.268;2023-04-03T06:41:19;98210.34;;;3.85;100.00
5284;BME280;15377;48.540;9.268;2023-04-03T06:43:46;98227.31;;;3.96;100.00
5284;BME280;15377;48.540;9.268;2023-04-03T06:46:16;98212.91;;;3.96;100.00
5284;BME280;15377;48.540;9.268;2023-04-03T06:48:42;98214.81;;;3.99;100.00
5284;BME280;15377;48.540;9.268;2023-04-03T06:53:45;98227.13;;;4.10;100.00
5284;BME280;15377;48.540;9.268;2023-04-03T06:56:11;98208.47;;;4.09;100.00
5284;BME280;15377;48.540;9.268;2023-04-03T06:58:36;98200.91;;;4.20;100.00
5284;BME280;15377;48.540;9.268;2023-04-03T07:01:02;98213.53;;;4.37;100.00
5284;BME280;15377;48.540;9.268;2023-04-03T07:03:27;98220.53;;;4.38;100.00
5284;BME280;15377;48.540;9.268;2023-04-03T07:05:53;98217.94;;;4.54;100.00
5284;BME280;15377;48.540;9.268;2023-04-03T07:08:18;98204.97;;;4.35;100.00
5284;BME280;15377;48.540;9.268;2023-04-03T07:10:44;98220.78;;;4.47;100.00
5284;BME280;15377;48.540;9.268;2023-04-03T07:13:09;98225.69;;;4.55;100.00
5284;BME280;15377;48.540;9.268;2023-04-03T07:15:34;98231.03;;;4.62;100.00
5284;BME280;15377;48.540;9.268;2023-04-03T07:18:01;98223.16;;;4.68;100.00
5284;BME280;15377;48.540;9.268;2023-04-03T07:20:26;98220.97;;;4.59;100.00
5284;BME280;15377;48.540;9.268;2023-04-03T07:22:52;98222.34;;;4.71;100.00
5284;BME280;15377;48.540;9.268;2023-04-03T07:25:17;98214.19;;;4.71;100.00
5284;BME280;15377;48.540;9.268;2023-04-03T07:27:42;98235.28;;;4.90;100.00
5284;BME280;15377;48.540;9.268;2023-04-03T07:30:08;98236.81;;;4.91;100.00
5284;BME280;15377;48.540;9.268;2023-04-03T07:32:34;98233.84;;;4.82;100.00
5284;BME280;15377;48.540;9.268;2023-04-03T07:35:00;98212.72;;;4.89;100.00
5284;BME280;15377;48.540;9.268;2023-04-03T07:37:25;98248.59;;;5.34;100.00
5284;BME280;15377;48.540;9.268;2023-04-03T07:39:51;98245.56;;;5.51;100.00
5284;BME280;15377;48.540;9.268;2023-04-03T07:42:17;98243.25;;;5.69;100.00
5284;BME280;15377;48.540;9.268;2023-04-03T07:44:42;98230.97;;;5.81;100.00
5284;BME280;15377;48.540;9.268;2023-04-03T07:47:07;98232.09;;;6.03;100.00
5284;BME280;15377;48.540;9.268;2023-04-03T07:49:33;98240.44;;;5.96;100.00
5284;BME280;15377;48.540;9.268;2023-04-03T08:30:41;98262.44;;;6.44;100.00
5284;BME280;15377;48.540;9.268;2023-04-03T08:33:08;98250.31;;;6.45;100.00
5284;BME280;15377;48.540;9.268;2023-04-03T08:35:38;98253.88;;;6.26;100.00
5284;BME280;15377;48.540;9.268;2023-04-03T08:38:03;98267.50;;;6.45;100.00
5284;BME280;15377;48.540;9.268;2023-04-03T08:40:29;98269.34;;;6.68;100.00
5284;BME280;15377;48.540;9.268;2023-04-03T08:45:55;98271.31;;;6.83;100.00
5284;BME280;15377;48.540;9.268;2023-04-03T08:48:29;98273.28;;;6.67;100.00
5284;BME280;15377;48.540;9.268;2023-04-03T08:51:19;98265.72;;;6.55;100.00
5284;BME280;15377;48.540;9.268;2023-04-03T08:53:57;98272.19;;;6.45;100.00
5284;BME280;15377;48.540;9.268;2023-04-03T08:56:24;98271.47;;;6.76;100.00
5284;BME280;15377;48.540;9.268;2023-04-03T08:58:56;98275.81;;;6.58;100.00
5284;BME280;15377;48.540;9.268;2023-04-03T09:01:29;98270.50;;;6.51;100.00
5284;BME280;15377;48.540;9.268;2023-04-03T09:04:00;98277.72;;;6.41;100.00
5284;BME280;15377;48.540;9.268;2023-04-03T09:06:29;98283.28;;;6.38;100.00
5284;BME280;15377;48.540;9.268;2023-04-03T09:09:37;98278.72;;;6.31;100.00
5284;BME280;15377;48.540;9.268;2023-04-03T09:12:17;98278.09;;;6.24;100.00
5284;BME280;15377;48.540;9.268;2023-04-03T09:17:49;98279.06;;;6.33;100.00
5284;BME280;15377;48.540;9.268;2023-04-03T09:20:27;98272.47;;;6.31;100.00
5284;BME280;15377;48.540;9.268;2023-04-03T09:22:57;98273.53;;;6.37;100.00
5284;BME280;15377;48.540;9.268;2023-04-03T09:25:29;98283.66;;;6.56;100.00
5284;BME280;15377;48.540;9.268;2023-04-03T09:27:59;98281.91;;;6.81;100.00
5284;BME280;15377;48.540;9.268;2023-04-03T09:30:25;98276.53;;;6.94;100.00
5284;BME280;15377;48.540;9.268;2023-04-03T09:32:53;98274.13;;;6.80;100.00
5284;BME280;15377;48.540;9.268;2023-04-03T09:42:58;98272.19;;;6.45;100.00
5284;BME280;15377;48.540;9.268;2023-04-03T09:50:53;98240.44;;;6.67;100.00
5284;BME280;15377;48.540;9.268;2023-04-03T09:53:41;98262.53;;;6.92;100.00
5284;BME280;15377;48.540;9.268;2023-04-03T09:58:44;98267.66;;;7.06;100.00
5284;BME280;15377;48.540;9.268;2023-04-03T10:01:34;98258.75;;;7.17;100.00
5284;BME280;15377;48.540;9.268;2023-04-03T10:04:17;98262.84;;;7.41;100.00
5284;BME280;15377;48.540;9.268;2023-04-03T10:06:51;98259.63;;;7.30;100.00
5284;BME280;15377;48.540;9.268;2023-04-03T10:12:12;98261.50;;;7.33;100.00
5284;BME280;15377;48.540;9.268;2023-04-03T10:14:54;98256.28;;;7.23;100.00
5284;BME280;15377;48.540;9.268;2023-04-03T10:17:34;98263.88;;;7.31;100.00
5284;BME280;15377;48.540;9.268;2023-04-03T10:20:44;98268.78;;;7.24;100.00
5284;BME280;15377;48.540;9.268;2023-04-03T10:23:24;98265.75;;;6.87;100.00
5284;BME280;15377;48.540;9.268;2023-04-03T10:28:31;98261.16;;;7.15;100.00
5284;BME280;15377;48.540;9.268;2023-04-03T10:31:37;98260.47;;;7.11;100.00
5284;BME280;15377;48.540;9.268;2023-04-03T10:34:18;98262.19;;;6.74;100.00
5284;BME280;15377;48.540;9.268;2023-04-03T10:44:51;98253.25;;;6.70;100.00
5284;BME280;15377;48.540;9.268;2023-04-03T10:47:21;98258.94;;;7.10;100.00
5284;BME280;15377;48.540;9.268;2023-04-03T10:49:56;98254.47;;;7.32;98.91
5284;BME280;15377;48.540;9.268;2023-04-03T10:52:41;98252.94;;;7.31;96.80
5284;BME280;15377;48.540;9.268;2023-04-03T10:57:39;98250.09;;;7.79;89.00
5284;BME280;15377;48.540;9.268;2023-04-03T11:00:21;98247.47;;;7.76;90.20
5284;BME280;15377;48.540;9.268;2023-04-03T11:02:51;98253.38;;;7.74;88.95
5284;BME280;15377;48.540;9.268;2023-04-03T11:07:52;98257.72;;;7.27;94.30
5284;BME280;15377;48.540;9.268;2023-04-03T11:10:25;98246.25;;;7.32;95.27
5284;BME280;15377;48.540;9.268;2023-04-03T11:13:02;98245.53;;;7.16;95.07
5284;BME280;15377;48.540;9.268;2023-04-03T11:15:32;98251.34;;;7.02;97.07
5284;BME280;15377;48.540;9.268;2023-04-03T11:18:05;98256.72;;;7.06;96.81
5284;BME280;15377;48.540;9.268;2023-04-03T11:20:33;98258.91;;;6.79;94.81
5284;BME280;15377;48.540;9.268;2023-04-03T11:23:24;98253.34;;;6.82;93.60
5284;BME280;15377;48.540;9.268;2023-04-03T11:25:54;98244.22;;;6.73;92.25
5284;BME280;15377;48.540;9.268;2023-04-03T11:28:20;98250.88;;;6.88;93.99
5284;BME280;15377;48.540;9.268;2023-04-03T11:35:58;98247.16;;;7.13;91.88
5284;BME280;15377;48.540;9.268;2023-04-03T11:38:34;98238.22;;;7.09;89.74
5284;BME280;15377;48.540;9.268;2023-04-03T11:41:03;98246.88;;;6.92;89.56
5284;BME280;15377;48.540;9.268;2023-04-03T11:43:32;98240.88;;;6.97;89.25
5284;BME280;15377;48.540;9.268;2023-04-03T11:45:58;98240.47;;;6.99;89.90
5284;BME280;15377;48.540;9.268;2023-04-03T11:50:54;98237.19;;;7.03;90.03
5284;BME280;15377;48.540;9.268;2023-04-03T11:53:40;98243.38;;;7.07;90.56
5284;BME280;15377;48.540;9.268;2023-04-03T12:04:15;98238.25;;;6.94;87.88
5284;BME280;15377;48.540;9.268;2023-04-03T12:12:28;98236.09;;;6.69;88.90
5284;BME280;15377;48.540;9.268;2023-04-03T12:14:54;98223.25;;;6.66;89.09
5284;BME280;15377;48.540;9.268;2023-04-03T12:17:22;98221.91;;;6.90;91.23
5284;BME280;15377;48.540;9.268;2023-04-03T12:19:49;98222.78;;;7.03;89.90
5284;BME280;15377;48.540;9.268;2023-04-03T12:22:18;98222.16;;;7.11;88.96
5284;BME280;15377;48.540;9.268;2023-04-03T12:24:48;98223.34;;;6.95;85.93
5284;BME280;15377;48.540;9.268;2023-04-03T12:27:24;98219.50;;;6.76;86.92
5284;BME280;15377;48.540;9.268;2023-04-03T12:35:36;98218.41;;;7.06;85.60
5284;BME280;15377;48.540;9.268;2023-04-03T12:43:46;98208.25;;;7.34;83.64
5284;BME280;15377;48.540;9.268;2023-04-03T12:46:17;98215.47;;;7.28;81.60
5284;BME280;15377;48.540;9.268;2023-04-03T12:48:53;98203.66;;;7.31;82.56
5284;BME280;15377;48.540;9.268;2023-04-03T12:51:38;98211.59;;;7.42;82.33
5284;BME280;15377;48.540;9.268;2023-04-03T12:54:40;98207.00;;;7.23;80.74
5284;BME280;15377;48.540;9.268;2023-04-03T12:57:26;98214.22;;;7.17;80.84
5284;BME280;15377;48.540;9.268;2023-04-03T12:59:53;98208.81;;;7.13;81.20
5284;BME280;15377;48.540;9.268;2023-04-03T13:02:32;98205.81;;;6.92;80.62
5284;BME280;15377;48.540;9.268;2023-04-03T13:05:09;98209.44;;;6.89;81.43
5284;BME280;15377;48.540;9.268;2023-04-03T13:07:40;98202.41;;;6.88;80.51
5284;BME280;15377;48.540;9.268;2023-04-03T13:12:56;98206.44;;;7.00;81.65
5284;BME280;15377;48.540;9.268;2023-04-03T13:15:26;98209.44;;;6.89;78.40
5284;BME280;15377;48.540;9.268;2023-04-03T13:17:53;98207.09;;;7.03;81.16
5284;BME280;15377;48.540;9.268;2023-04-03T13:20:31;98205.22;;;7.16;82.89
5284;BME280;15377;48.540;9.268;2023-04-03T13:23:01;98211.38;;;7.36;80.49
5284;BME280;15377;48.540;9.268;2023-04-03T13:25:31;98201.72;;;7.16;78.92
5284;BME280;15377;48.540;9.268;2023-04-03T13:27:58;98197.97;;;7.10;79.74
5284;BME280;15377;48.540;9.268;2023-04-03T13:30:30;98206.72;;;7.33;81.59
5284;BME280;15377;48.540;9.268;2023-04-03T13:32:59;98208.09;;;7.41;81.06
5284;BME280;15377;48.540;9.268;2023-04-03T13:35:37;98196.56;;;7.34;82.68
5284;BME280;15377;48.540;9.268;2023-04-03T13:38:26;98208.66;;;7.20;80.74
5284;BME280;15377;48.540;9.268;2023-04-03T13:41:01;98206.75;;;7.17;83.65
5284;BME280;15377;48.540;9.268;2023-04-03T13:43:30;98200.47;;;7.05;84.51
5284;BME280;15377;48.540;9.268;2023-04-03T13:45:59;98199.44;;;6.83;80.07
5284;BME280;15377;48.540;9.268;2023-04-03T13:48:25;98199.09;;;6.81;82.96
5284;BME280;15377;48.540;9.268;2023-04-03T13:51:53;98185.66;;;6.70;80.74
5284;BME280;15377;48.540;9.268;2023-04-03T13:53:54;98195.66;;;6.77;82.59
5284;BME280;15377;48.540;9.268;2023-04-03T13:56:33;98193.25;;;6.95;82.43
5284;BME280;15377;48.540;9.268;2023-04-03T14:04:23;98174.38;;;7.73;80.85
5284;BME280;15377;48.540;9.268;2023-04-03T14:06:49;98191.56;;;8.14;78.44
5284;BME280;15377;48.540;9.268;2023-04-03T14:09:18;98187.19;;;8.29;77.83
5284;BME280;15377;48.540;9.268;2023-04-03T14:11:45;98173.13;;;8.02;74.79
5284;BME280;15377;48.540;9.268;2023-04-03T14:14:32;98188.63;;;7.80;74.49
5284;BME280;15377;48.540;9.268;2023-04-03T14:17:00;98188.69;;;8.05;77.51
5284;BME280;15377;48.540;9.268;2023-04-03T14:19:32;98179.97;;;7.82;74.35
5284;BME280;15377;48.540;9.268;2023-04-03T14:22:00;98187.94;;;7.64;75.58
5284;BME280;15377;48.540;9.268;2023-04-03T14:24:26;98186.81;;;7.61;76.51
5284;BME280;15377;48.540;9.268;2023-04-03T14:26:53;98174.22;;;7.64;76.94
5284;BME280;15377;48.540;9.268;2023-04-03T14:29:19;98174.31;;;7.60;75.76
5284;BME280;15377;48.540;9.268;2023-04-03T14:31:47;98172.94;;;7.68;77.88
5284;BME280;15377;48.540;9.268;2023-04-03T14:34:13;98165.47;;;7.69;75.06
5284;BME280;15377;48.540;9.268;2023-04-03T14:36:39;98167.38;;;7.43;74.52
5284;BME280;15377;48.540;9.268;2023-04-03T14:39:08;98173.50;;;7.19;74.70
5284;BME280;15377;48.540;9.268;2023-04-03T14:41:34;98146.38;;;7.08;76.40
5284;BME280;15377;48.540;9.268;2023-04-03T14:44:00;98168.50;;;7.30;78.43
5284;BME280;15377;48.540;9.268;2023-04-03T14:46:29;98157.69;;;7.39;77.71
5284;BME280;15377;48.540;9.268;2023-04-03T14:48:55;98156.97;;;7.22;77.07
5284;BME280;15377;48.540;9.268;2023-04-03T14:51:20;98161.56;;;7.25;74.81
5284;BME280;15377;48.540;9.268;2023-04-03T14:53:45;98161.69;;;7.06;72.59
5284;BME280;15377;48.540;9.268;2023-04-03T14:56:21;98153.66;;;6.99;74.11
5284;BME280;15377;48.540;9.268;2023-04-03T14:58:49;98146.56;;;7.02;74.44
5284;BME280;15377;48.540;9.268;2023-04-03T15:01:17;98158.50;;;7.23;73.26
5284;BME280;15377;48.540;9.268;2023-04-03T15:03:44;98158.97;;;7.34;75.30
5284;BME280;15377;48.540;9.268;2023-04-03T15:06:13;98160.88;;;7.37;73.02
5284;BME280;15377;48.540;9.268;2023-04-03T15:08:40;98155.53;;;7.18;71.96
5284;BME280;15377;48.540;9.268;2023-04-03T15:11:08;98160.41;;;7.10;72.55
5284;BME280;15377;48.540;9.268;2023-04-03T15:13:33;98156.84;;;6.98;72.33
5284;BME280;15377;48.540;9.268;2023-04-03T15:15:59;98157.69;;;6.95;75.04
5284;BME280;15377;48.540;9.268;2023-04-03T15:18:26;98156.16;;;6.94;77.51
5284;BME280;15377;48.540;9.268;2023-04-03T15:20:53;98157.38;;;6.77;77.01
5284;BME280;15377;48.540;9.268;2023-04-03T15:23:19;98152.75;;;6.74;77.78
5284;BME280;15377;48.540;9.268;2023-04-03T15:25:46;98160.19;;;6.73;77.66
5284;BME280;15377;48.540;9.268;2023-04-03T15:28:21;98159.16;;;6.83;76.19
5284;BME280;15377;48.540;9.268;2023-04-03T15:30:47;98113.13;;;6.50;74.50
5284;BME280;15377;48.540;9.268;2023-04-03T15:33:13;98171.03;;;6.93;75.94
5284;BME280;15377;48.540;9.268;2023-04-03T15:35:38;98158.38;;;6.99;74.76
5284;BME280;15377;48.540;9.268;2023-04-03T15:38:04;98158.97;;;7.06;74.86